Austin, Nevada
Current Conditions -  °F | °C
As of 4:56 AM on Monday 22 Dec 2014 (Local Time) from KNFL Reporting Station
Clear Clear  
Wind Chill:   Ceiling: Unl
Heat Index:   Visibility: 10mi
Dew Point:   Wind: 14mph
Humidity: 68%   Direction: 240°WSW
Pressure: 30.21"   Gusts: NA
Location:  39.49°N, 117.07°W
Report Text: KNFL 221256Z AUTO 24012KT 10SM CLR 07/02 A3021 RMK AO2 SLP194 T00720017 $
Loading
Personal Weather Stations






























Interactive Weather Map New forecast layout! Learn more

10-Day Weather Forecast

Advertisements
Track Severe Weather on mobile